No Title

Espaces réglementés et Zones à statuts particuliers aero et les espaces réglementés qui sont les zones de l’annexe I et II de l’Arrêté du 11 avril 2012 relatives à l’espace aérien par les aéronefs qui circulent sans personne à bord. biton
Réserve naturelle bleue
Base ULM ULM
Héliport HELIPORT
Parapente PARAPENTE
piloteDRONE votre enplacement

 

METAR FMEE
Available data for FMEE from the past 2 hours
ST. DENIS/GILLOT
Metar
FMEE 190830Z 08014KT 9999 FEW026 29/21 Q1015 NOSIG

08:30 UTC

Wind: 80° 14kt

Visibility: 9999 m

Sky: FEW 2600 ft

Temp: 29 deg C / 84.2 deg F

Dewpoint: 21 deg C / 69.8 deg F

Pressure: 1015 hPa

TAF FMEE
Available data for FMEE from the past 2 hours
ST. DENIS/GILLOT
TAF
FMEE 190500Z 1906/2012 08015G25KT 9999 FEW025 BECMG 1916/1918 14012KT BECMG 2004/2006 08015KT

 

METAR FMEP
Available data for FMEP from the past 2 hours
ST. PIERRE/FONDS
Metar
FMEP 190830Z AUTO 24007KT 210V270 9999 BKN054 28/22 Q1015 NOSIG

08:30 UTC

Wind: 240° 7kt

Visibility: 9999 m

Sky: BKN 5400 ft

Temp: 28 deg C / 82.4 deg F

Dewpoint: 22 deg C / 71.6 deg F

Pressure: 1015 hPa

TAF FMEP
Available data for FMEP from the past 2 hours
ST. PIERRE/FONDS
TAF
TAF FMEP 190500Z 1906/1915 25010KT 9999 FEW026 BECMG 1914/1915 09005KT SHRA BKN014

 

NOTAM